createdAt,value
2018-09-05T00:02:11.546Z,14.90
2018-09-05T00:04:41.357Z,14.90
2018-09-05T00:07:10.794Z,14.90
2018-09-05T00:09:39.767Z,14.80
2018-09-05T00:12:08.677Z,14.80
2018-09-05T00:14:37.646Z,14.80
2018-09-05T00:17:06.716Z,14.80
2018-09-05T00:19:35.250Z,14.70
2018-09-05T00:22:03.583Z,14.60
2018-09-05T00:24:31.658Z,14.50
2018-09-05T00:27:00.594Z,14.40
2018-09-05T00:29:28.727Z,14.40
2018-09-05T00:31:57.797Z,14.40
2018-09-05T00:34:25.997Z,14.40
2018-09-05T00:36:54.783Z,14.50
2018-09-05T00:39:23.009Z,14.50
2018-09-05T00:41:51.422Z,14.50
2018-09-05T00:44:20.359Z,14.60
2018-09-05T00:46:49.351Z,14.60
2018-09-05T00:49:18.427Z,14.50
2018-09-05T00:51:47.915Z,14.40
2018-09-05T00:54:16.113Z,14.40
2018-09-05T00:56:44.305Z,14.40
2018-09-05T00:59:13.321Z,14.40
2018-09-05T01:01:42.062Z,14.30
2018-09-05T01:04:11.210Z,14.20
2018-09-05T01:06:39.303Z,14.20
2018-09-05T01:09:09.056Z,14.20
2018-09-05T01:11:37.426Z,14.30
2018-09-05T01:14:07.542Z,14.30
2018-09-05T01:16:38.088Z,14.40
2018-09-05T01:19:06.170Z,14.30
2018-09-05T01:21:35.101Z,14.30
2018-09-05T01:24:03.413Z,14.40
2018-09-05T01:26:31.893Z,14.30
2018-09-05T01:29:01.022Z,14.10
2018-09-05T01:31:29.550Z,14.00
2018-09-05T01:33:59.210Z,14.00
2018-09-05T01:36:28.078Z,14.00
2018-09-05T01:38:57.190Z,14.00
2018-09-05T01:41:25.509Z,14.00
2018-09-05T01:43:53.641Z,14.10
2018-09-05T01:46:22.378Z,14.10
2018-09-05T01:48:50.475Z,14.00
2018-09-05T01:51:19.069Z,14.00
2018-09-05T01:53:47.701Z,14.00
2018-09-05T01:56:16.813Z,14.00
2018-09-05T01:58:46.405Z,14.00
2018-09-05T02:01:15.505Z,13.90
2018-09-05T02:03:44.141Z,13.90
2018-09-05T02:06:13.261Z,13.80
2018-09-05T02:08:41.393Z,13.80
2018-09-05T02:11:09.464Z,13.80
2018-09-05T02:13:38.202Z,13.80
2018-09-05T02:16:07.890Z,13.90
2018-09-05T02:18:36.051Z,13.80
2018-09-05T02:21:04.228Z,13.80
2018-09-05T02:23:32.997Z,13.80
2018-09-05T02:26:01.726Z,13.80
2018-09-05T02:28:30.638Z,13.80
2018-09-05T02:30:58.769Z,13.70
2018-09-05T02:33:29.228Z,13.80
2018-09-05T02:37:01.545Z,13.80
2018-09-05T02:39:30.631Z,13.80
2018-09-05T02:41:58.777Z,13.80
2018-09-05T02:44:27.549Z,13.70
2018-09-05T02:46:56.561Z,13.70
2018-09-05T02:49:26.909Z,13.70
2018-09-05T02:51:56.070Z,13.70
2018-09-05T02:54:24.538Z,13.80
2018-09-05T02:56:53.817Z,13.80
2018-09-05T02:59:22.293Z,13.80
2018-09-05T03:01:50.698Z,13.70
2018-09-05T03:04:18.877Z,13.70
2018-09-05T03:06:48.894Z,13.70
2018-09-05T03:09:18.205Z,13.70
2018-09-05T03:11:47.040Z,13.60
2018-09-05T03:14:15.329Z,13.60
2018-09-05T03:16:43.541Z,13.60
2018-09-05T03:19:13.354Z,13.60
2018-09-05T03:21:41.550Z,13.60
2018-09-05T03:24:10.017Z,13.60
2018-09-05T03:26:39.377Z,13.60
2018-09-05T03:29:08.833Z,13.60
2018-09-05T03:31:37.089Z,13.50
2018-09-05T03:34:07.744Z,13.50
2018-09-05T03:36:36.466Z,13.50
2018-09-05T03:39:07.954Z,13.40
2018-09-05T03:41:36.111Z,13.50
2018-09-05T03:44:04.993Z,13.50
2018-09-05T03:46:33.156Z,13.50
2018-09-05T03:49:01.273Z,13.50
2018-09-05T03:51:29.476Z,13.50
2018-09-05T03:53:57.577Z,13.40
2018-09-05T03:56:26.033Z,13.50
2018-09-05T03:58:54.118Z,13.40
2018-09-05T04:01:22.455Z,13.40
2018-09-05T04:03:52.778Z,13.40
2018-09-05T04:06:22.448Z,13.40
2018-09-05T04:08:52.857Z,13.30
2018-09-05T04:11:21.373Z,13.30
2018-09-05T04:13:50.013Z,13.30
2018-09-05T04:16:18.377Z,13.30
2018-09-05T04:18:46.495Z,13.30
2018-09-05T04:21:15.853Z,13.40
2018-09-05T04:23:46.981Z,13.40
2018-09-05T04:26:17.318Z,13.40
2018-09-05T04:28:45.521Z,13.50
2018-09-05T04:31:15.329Z,13.50
2018-09-05T04:33:44.611Z,13.60
2018-09-05T04:36:14.364Z,13.70
2018-09-05T04:38:44.021Z,13.70
2018-09-05T04:41:12.715Z,13.70
2018-09-05T04:43:41.829Z,13.70
2018-09-05T04:46:09.980Z,13.70
2018-09-05T04:48:38.473Z,13.70
2018-09-05T04:51:07.173Z,13.70
2018-09-05T04:53:36.295Z,13.60
2018-09-05T04:56:05.445Z,13.40
2018-09-05T04:58:34.514Z,13.20
2018-09-05T05:01:02.648Z,13.00
2018-09-05T05:03:30.725Z,12.90
2018-09-05T05:05:59.242Z,12.80
2018-09-05T05:08:28.758Z,12.80
2018-09-05T05:10:57.690Z,12.70
2018-09-05T05:13:25.898Z,12.80
2018-09-05T05:15:54.676Z,12.90
2018-09-05T05:18:22.886Z,13.00
2018-09-05T05:20:51.132Z,12.80
2018-09-05T05:23:19.442Z,12.80
2018-09-05T05:25:49.405Z,12.80
2018-09-05T05:28:18.001Z,12.90
2018-09-05T05:30:46.122Z,13.10
2018-09-05T05:33:15.027Z,13.30
2018-09-05T05:35:43.934Z,13.40
2018-09-05T05:38:13.214Z,13.60
2018-09-05T05:40:42.857Z,13.80
2018-09-05T05:43:10.982Z,14.00
2018-09-05T05:45:40.249Z,14.10
2018-09-05T05:48:08.399Z,14.20
2018-09-05T05:50:36.697Z,14.30
2018-09-05T05:53:05.287Z,14.30
2018-09-05T05:55:33.873Z,14.40
2018-09-05T05:58:02.450Z,14.40
2018-09-05T06:00:30.645Z,14.40
2018-09-05T06:02:59.862Z,14.60
2018-09-05T06:05:28.057Z,14.60
2018-09-05T06:07:56.285Z,14.60
2018-09-05T06:10:26.701Z,14.60
2018-09-05T06:12:56.654Z,14.60
2018-09-05T06:15:25.738Z,14.60
2018-09-05T06:17:54.520Z,14.60
2018-09-05T06:20:22.903Z,14.70
2018-09-05T06:22:51.366Z,14.80
2018-09-05T06:25:19.859Z,14.90
2018-09-05T06:27:48.916Z,15.00
2018-09-05T06:30:17.322Z,15.10
2018-09-05T06:32:47.194Z,15.10
2018-09-05T06:35:16.558Z,15.20
2018-09-05T06:37:45.282Z,15.30
2018-09-05T06:40:13.398Z,15.20
2018-09-05T06:42:42.453Z,15.20
2018-09-05T06:45:10.895Z,15.20
2018-09-05T06:47:38.962Z,15.30
2018-09-05T06:50:07.718Z,15.50
2018-09-05T06:52:35.913Z,15.60
2018-09-05T06:55:04.526Z,15.80
2018-09-05T06:57:32.734Z,15.80
2018-09-05T07:00:02.262Z,15.70
2018-09-05T07:02:30.566Z,15.70
2018-09-05T07:04:59.170Z,15.60
2018-09-05T07:07:27.926Z,15.60
2018-09-05T07:09:56.152Z,15.70
2018-09-05T07:12:24.245Z,15.80
2018-09-05T07:14:52.430Z,15.70
2018-09-05T07:17:21.117Z,15.80
2018-09-05T07:19:49.374Z,15.80
2018-09-05T07:22:19.387Z,15.80
2018-09-05T07:24:47.584Z,15.90
2018-09-05T07:27:17.094Z,16.00
2018-09-05T07:29:45.379Z,15.90
2018-09-05T07:32:14.437Z,15.90
2018-09-05T07:34:42.617Z,16.00
2018-09-05T07:37:11.753Z,16.10
2018-09-05T07:39:39.994Z,16.30
2018-09-05T07:42:10.062Z,16.40
2018-09-05T07:44:38.813Z,16.40
2018-09-05T07:47:07.948Z,16.50
2018-09-05T07:49:36.397Z,16.50
2018-09-05T07:52:05.660Z,16.60
2018-09-05T07:54:34.875Z,16.60
2018-09-05T07:57:03.540Z,16.50
2018-09-05T07:59:33.165Z,16.40
2018-09-05T08:02:01.336Z,16.50
2018-09-05T08:04:30.671Z,16.50
2018-09-05T08:06:59.037Z,16.50
2018-09-05T08:09:28.113Z,16.60
2018-09-05T08:11:56.330Z,16.80
2018-09-05T08:14:25.313Z,16.90
2018-09-05T08:16:54.405Z,17.00
2018-09-05T08:19:23.861Z,16.90
2018-09-05T08:21:54.479Z,16.90
2018-09-05T08:24:23.503Z,17.00
2018-09-05T08:26:51.552Z,17.00
2018-09-05T08:29:20.034Z,17.10
2018-09-05T08:31:50.429Z,17.00
2018-09-05T08:34:20.453Z,17.10
2018-09-05T08:36:50.385Z,17.10
2018-09-05T08:39:18.324Z,17.10
2018-09-05T08:41:46.522Z,17.30
2018-09-05T08:44:15.471Z,17.20
2018-09-05T08:46:43.484Z,17.20
2018-09-05T08:49:11.718Z,17.30
2018-09-05T08:51:40.297Z,17.30
2018-09-05T09:01:06.300Z,17.50
2018-09-05T09:03:34.827Z,17.90
2018-09-05T09:06:03.452Z,18.10
2018-09-05T09:08:32.494Z,18.20
2018-09-05T09:11:00.918Z,18.40
2018-09-05T09:13:29.145Z,18.10
2018-09-05T09:15:57.373Z,18.30
2018-09-05T09:18:25.793Z,18.70
2018-09-05T09:20:54.001Z,18.90
2018-09-05T09:23:22.210Z,19.00
2018-09-05T09:25:50.371Z,19.20
2018-09-05T09:28:19.314Z,19.60
2018-09-05T09:30:47.403Z,19.70
2018-09-05T09:33:17.054Z,19.40
2018-09-05T09:35:45.132Z,19.30
2018-09-05T09:38:13.293Z,19.40
2018-09-05T09:40:41.681Z,19.10
2018-09-05T09:43:09.795Z,19.10
2018-09-05T09:45:37.922Z,19.20
2018-09-05T09:48:07.349Z,19.00
2018-09-05T09:50:35.485Z,19.20
2018-09-05T09:53:03.921Z,19.30
2018-09-05T09:55:32.053Z,19.60
2018-09-05T09:58:01.029Z,20.60
2018-09-05T10:00:34.981Z,21.70
2018-09-05T10:03:08.551Z,22.00
2018-09-05T10:05:42.166Z,22.00
2018-09-05T10:08:15.434Z,21.80
2018-09-05T10:10:50.306Z,23.00
2018-09-05T10:13:25.345Z,23.80
2018-09-05T10:15:59.103Z,24.50
2018-09-05T10:18:29.454Z,25.00
2018-09-05T10:20:59.294Z,24.40
2018-09-05T10:23:27.381Z,24.60
2018-09-05T10:25:56.755Z,25.70
2018-09-05T10:28:25.896Z,25.30
2018-09-05T10:30:53.969Z,24.40
2018-09-05T10:33:22.597Z,24.30
2018-09-05T10:35:51.276Z,25.00
2018-09-05T10:38:19.562Z,25.80
2018-09-05T10:40:48.201Z,26.30
2018-09-05T10:43:17.385Z,26.70
2018-09-05T10:45:46.359Z,24.90
2018-09-05T10:48:14.927Z,24.10
2018-09-05T10:50:43.948Z,24.20
2018-09-05T10:53:12.117Z,23.90
2018-09-05T10:55:40.517Z,23.70
2018-09-05T10:58:09.422Z,23.40
2018-09-05T11:00:37.439Z,23.50
2018-09-05T11:06:05.073Z,23.50
2018-09-05T11:08:34.038Z,24.80
2018-09-05T11:11:02.185Z,25.60
2018-09-05T11:13:31.282Z,26.70
2018-09-05T11:15:59.953Z,24.40
2018-09-05T11:18:29.289Z,24.20
2018-09-05T11:20:57.938Z,24.40
2018-09-05T11:23:26.150Z,24.20
2018-09-05T11:25:55.049Z,24.60
2018-09-05T11:28:23.229Z,25.50
2018-09-05T11:30:51.376Z,25.80
2018-09-05T11:33:19.955Z,25.90
2018-09-05T11:35:48.177Z,25.60
2018-09-05T11:38:17.150Z,24.70
2018-09-05T11:40:45.581Z,24.70
2018-09-05T11:43:14.525Z,24.80
2018-09-05T11:45:43.084Z,25.80
2018-09-05T11:48:11.293Z,26.90
2018-09-05T11:50:40.027Z,27.20
2018-09-05T11:53:08.118Z,27.10
2018-09-05T11:55:36.565Z,26.40
2018-09-05T11:58:05.070Z,26.60
2018-09-05T12:00:33.252Z,26.40
2018-09-05T12:03:01.905Z,25.80
2018-09-05T12:05:30.193Z,25.90
2018-09-05T12:07:59.038Z,25.50
2018-09-05T12:10:27.806Z,24.40
2018-09-05T12:12:57.100Z,25.20
2018-09-05T12:15:25.917Z,25.00
2018-09-05T12:17:54.397Z,25.40
2018-09-05T12:20:23.777Z,25.10
2018-09-05T12:22:53.149Z,25.10
2018-09-05T12:25:21.876Z,25.60
2018-09-05T12:27:50.057Z,25.00
2018-09-05T12:30:18.735Z,24.60
2018-09-05T12:32:47.197Z,24.60
2018-09-05T12:35:15.409Z,24.40
2018-09-05T12:37:44.235Z,24.30
2018-09-05T12:40:13.618Z,25.50
2018-09-05T12:42:41.854Z,25.10
2018-09-05T12:45:10.342Z,25.30
2018-09-05T12:47:38.417Z,25.40
2018-09-05T12:50:07.009Z,24.00
2018-09-05T12:52:35.785Z,23.60
2018-09-05T12:55:04.082Z,23.50
2018-09-05T12:57:32.286Z,23.60
2018-09-05T13:00:00.570Z,24.00
2018-09-05T13:02:30.218Z,23.80
2018-09-05T13:06:01.936Z,23.30
2018-09-05T13:08:30.997Z,23.10
2018-09-05T13:10:59.306Z,23.40
2018-09-05T13:13:27.415Z,23.60
2018-09-05T13:15:55.925Z,24.00
2018-09-05T13:18:24.139Z,24.10
2018-09-05T13:20:53.907Z,23.80
2018-09-05T13:23:22.097Z,23.40
2018-09-05T13:25:50.454Z,23.40
2018-09-05T13:28:19.132Z,23.50
2018-09-05T13:30:47.689Z,23.60
2018-09-05T13:33:16.342Z,23.40
2018-09-05T13:35:44.473Z,23.50
2018-09-05T13:38:13.625Z,23.40
2018-09-05T13:40:43.018Z,23.40
2018-09-05T13:43:11.188Z,23.60
2018-09-05T13:45:39.319Z,23.90
2018-09-05T13:48:07.546Z,24.00
2018-09-05T13:50:36.450Z,24.30
2018-09-05T13:53:04.605Z,24.40
2018-09-05T13:55:32.694Z,24.20
2018-09-05T13:58:00.941Z,23.80
2018-09-05T14:00:29.850Z,23.60
2018-09-05T14:02:58.169Z,23.80
2018-09-05T14:05:27.461Z,23.90
2018-09-05T14:07:56.106Z,24.00
2018-09-05T14:10:25.573Z,24.20
2018-09-05T14:12:54.114Z,24.00
2018-09-05T14:15:22.896Z,24.00
2018-09-05T14:17:51.763Z,23.70
2018-09-05T14:20:20.401Z,23.90
2018-09-05T14:22:50.900Z,24.20
2018-09-05T14:25:19.057Z,24.10
2018-09-05T14:27:49.285Z,23.80
2018-09-05T14:30:17.786Z,23.80
2018-09-05T14:32:45.935Z,23.70
2018-09-05T14:35:14.159Z,23.60
2018-09-05T14:37:42.262Z,23.70
2018-09-05T14:40:10.508Z,23.80
2018-09-05T14:42:39.774Z,23.80
2018-09-05T14:45:07.953Z,23.60
2018-09-05T14:47:36.127Z,23.60
2018-09-05T14:50:04.601Z,23.50
2018-09-05T14:52:32.758Z,23.50
2018-09-05T14:55:01.442Z,23.50
2018-09-05T14:57:29.906Z,23.40
2018-09-05T14:59:57.982Z,23.40
2018-09-05T15:02:26.195Z,23.50
2018-09-05T15:04:55.501Z,23.40
2018-09-05T15:07:24.025Z,23.60
2018-09-05T15:09:53.942Z,23.50
2018-09-05T15:12:22.969Z,23.60
2018-09-05T15:14:51.247Z,23.50
2018-09-05T15:17:19.445Z,23.50
2018-09-05T15:19:48.538Z,23.40
2018-09-05T15:22:16.597Z,23.30
2018-09-05T15:24:44.849Z,23.10
2018-09-05T15:27:13.068Z,23.00
2018-09-05T15:29:42.802Z,23.00
2018-09-05T15:32:10.956Z,23.00
2018-09-05T15:34:39.656Z,23.10
2018-09-05T15:37:08.298Z,23.20
2018-09-05T15:39:36.372Z,23.30
2018-09-05T15:42:04.985Z,23.30
2018-09-05T15:44:33.144Z,23.40
2018-09-05T15:47:01.641Z,23.30
2018-09-05T15:49:30.539Z,23.50
2018-09-05T15:51:59.326Z,23.40
2018-09-05T15:54:27.530Z,23.30
2018-09-05T15:56:55.769Z,23.30
2018-09-05T15:59:24.330Z,23.40
2018-09-05T16:01:53.757Z,23.50
2018-09-05T16:04:22.081Z,23.30
2018-09-05T16:06:50.642Z,23.40
2018-09-05T16:09:18.719Z,23.30
2018-09-05T16:11:48.321Z,23.20
2018-09-05T16:14:16.517Z,23.20
2018-09-05T16:16:44.728Z,23.10
2018-09-05T16:19:13.702Z,22.70
2018-09-05T16:22:46.162Z,22.50
2018-09-05T16:25:15.301Z,22.40
2018-09-05T16:27:43.706Z,22.30
2018-09-05T16:30:13.269Z,22.20
2018-09-05T16:32:42.307Z,22.10
2018-09-05T16:35:10.377Z,22.10
2018-09-05T16:37:38.687Z,22.00
2018-09-05T16:40:06.825Z,21.90
2018-09-05T16:42:34.994Z,21.90
2018-09-05T16:45:03.671Z,21.90
2018-09-05T16:47:32.048Z,21.70
2018-09-05T16:50:00.652Z,21.60
2018-09-05T16:52:30.382Z,21.60
2018-09-05T16:54:59.154Z,21.60
2018-09-05T16:57:28.145Z,21.50
2018-09-05T16:59:56.661Z,21.40
2018-09-05T17:02:25.791Z,21.40
2018-09-05T17:04:55.110Z,21.30
2018-09-05T17:07:23.314Z,21.20
2018-09-05T17:09:51.800Z,21.10
2018-09-05T17:12:21.258Z,21.00
2018-09-05T17:14:49.550Z,20.90
2018-09-05T17:17:18.044Z,20.90
2018-09-05T17:19:47.297Z,20.70
2018-09-05T17:22:16.397Z,20.70
2018-09-05T17:24:44.607Z,20.60
2018-09-05T17:27:14.061Z,20.50
2018-09-05T17:29:42.184Z,20.40
2018-09-05T17:32:10.645Z,20.40
2018-09-05T17:34:38.881Z,20.30
2018-09-05T17:37:07.257Z,20.10
2018-09-05T17:39:35.466Z,20.10
2018-09-05T17:42:03.555Z,20.10
2018-09-05T17:44:31.751Z,20.00
2018-09-05T17:46:59.921Z,19.90
2018-09-05T17:49:28.491Z,19.70
2018-09-05T17:51:56.562Z,19.60
2018-09-05T17:54:24.785Z,19.60
2018-09-05T17:56:52.933Z,19.50
2018-09-05T17:59:21.282Z,19.50
2018-09-05T18:01:49.521Z,19.40
2018-09-05T18:04:18.077Z,19.40
2018-09-05T18:06:46.218Z,19.40
2018-09-05T18:09:14.461Z,19.30
2018-09-05T18:11:42.566Z,19.20
2018-09-05T18:14:11.292Z,19.20
2018-09-05T18:16:39.357Z,19.20
2018-09-05T18:19:08.062Z,19.10
2018-09-05T18:21:36.781Z,19.00
2018-09-05T18:24:04.883Z,18.80
2018-09-05T18:26:33.122Z,18.80
2018-09-05T18:29:01.784Z,18.80
2018-09-05T18:31:30.466Z,18.80
2018-09-05T18:33:58.834Z,18.70
2018-09-05T18:36:27.925Z,18.70
2018-09-05T18:38:56.829Z,18.60
2018-09-05T18:41:25.287Z,18.60
2018-09-05T18:43:53.497Z,18.50
2018-09-05T18:46:21.929Z,18.40
2018-09-05T18:48:51.021Z,18.40
2018-09-05T18:51:20.138Z,18.40
2018-09-05T18:53:49.030Z,18.40
2018-09-05T18:56:17.413Z,18.30
2018-09-05T18:58:47.175Z,18.20
2018-09-05T19:01:15.222Z,18.10
2018-09-05T19:03:44.830Z,18.00
2018-09-05T19:06:13.358Z,18.10
2018-09-05T19:08:42.412Z,18.00
2018-09-05T19:11:10.541Z,17.90
2018-09-05T19:13:39.246Z,17.90
2018-09-05T19:16:08.371Z,17.80
2018-09-05T19:18:38.271Z,17.80
2018-09-05T19:21:06.961Z,17.80
2018-09-05T19:23:36.141Z,17.70
2018-09-05T19:26:04.385Z,17.70
2018-09-05T19:28:33.035Z,17.70
2018-09-05T19:31:01.819Z,17.60
2018-09-05T19:33:31.645Z,17.60
2018-09-05T19:36:00.315Z,17.60
2018-09-05T19:38:28.498Z,17.60
2018-09-05T19:40:56.910Z,17.60
2018-09-05T19:43:25.230Z,17.60
2018-09-05T19:45:53.425Z,17.60
2018-09-05T19:48:22.205Z,17.60
2018-09-05T19:50:50.281Z,17.60
2018-09-05T19:53:19.173Z,17.40
2018-09-05T19:55:47.946Z,17.30
2018-09-05T19:58:16.723Z,17.30
2018-09-05T20:00:45.134Z,17.20
2018-09-05T20:03:13.286Z,17.10
2018-09-05T20:05:42.917Z,17.10
2018-09-05T20:08:11.786Z,17.00
2018-09-05T20:10:40.302Z,17.00
2018-09-05T20:13:08.674Z,17.10
2018-09-05T20:15:37.745Z,17.10
2018-09-05T20:18:06.414Z,17.10
2018-09-05T20:20:35.364Z,17.00
2018-09-05T20:23:03.482Z,17.00
2018-09-05T20:25:32.294Z,17.00
2018-09-05T20:28:00.357Z,17.00
2018-09-05T20:30:30.297Z,17.00
2018-09-05T20:32:59.476Z,16.90
2018-09-05T20:35:27.677Z,16.90
2018-09-05T20:37:56.370Z,16.90
2018-09-05T20:40:24.493Z,16.90
2018-09-05T20:42:52.785Z,16.90
2018-09-05T20:45:21.249Z,16.90
2018-09-05T20:47:49.715Z,16.90
2018-09-05T20:50:18.694Z,16.80
2018-09-05T20:52:47.326Z,16.80
2018-09-05T20:55:15.845Z,16.80
2018-09-05T20:57:43.981Z,16.80
2018-09-05T21:00:12.745Z,16.80
2018-09-05T21:02:40.854Z,16.70
2018-09-05T21:05:09.066Z,16.80
2018-09-05T21:07:37.181Z,16.70
2018-09-05T21:10:06.141Z,16.70
2018-09-05T21:12:34.313Z,16.70
2018-09-05T21:15:02.698Z,16.70
2018-09-05T21:17:31.653Z,16.70
2018-09-05T21:20:00.625Z,16.70
2018-09-05T21:22:29.245Z,16.70
2018-09-05T21:24:57.995Z,16.70
2018-09-05T21:27:26.188Z,16.60
2018-09-05T21:29:54.313Z,16.60
2018-09-05T21:32:22.834Z,16.60
2018-09-05T21:34:51.027Z,16.50
2018-09-05T21:37:19.697Z,16.50
2018-09-05T21:39:47.929Z,16.50
2018-09-05T21:42:16.257Z,16.50
2018-09-05T21:44:45.758Z,16.50
2018-09-05T21:47:14.137Z,16.60
2018-09-05T21:49:42.905Z,16.50
2018-09-05T21:52:11.621Z,16.50
2018-09-05T21:54:40.654Z,16.40
2018-09-05T21:57:09.629Z,16.40
2018-09-05T21:59:38.813Z,16.40
2018-09-05T22:02:07.510Z,16.40
2018-09-05T22:04:36.854Z,16.40
2018-09-05T22:07:05.966Z,16.30
2018-09-05T22:09:35.003Z,16.30
2018-09-05T22:12:03.981Z,16.40
2018-09-05T22:14:32.963Z,16.40
2018-09-05T22:17:02.066Z,16.40
2018-09-05T22:19:30.981Z,16.30
2018-09-05T22:21:59.398Z,16.30
2018-09-05T22:24:27.556Z,16.30
2018-09-05T22:26:56.211Z,16.20
2018-09-05T22:29:24.831Z,16.20
2018-09-05T22:31:53.985Z,16.30
2018-09-05T22:34:23.817Z,16.30
2018-09-05T22:36:51.910Z,16.30
2018-09-05T22:39:20.855Z,16.20
2018-09-05T22:41:49.890Z,16.20
2018-09-05T22:44:29.538Z,16.10
2018-09-05T22:47:09.379Z,16.10
2018-09-05T22:49:55.203Z,16.00
2018-09-05T22:54:44.207Z,16.10
2018-09-05T22:59:29.440Z,16.00
2018-09-05T23:04:17.103Z,16.00
2018-09-05T23:06:57.819Z,16.00
2018-09-05T23:09:37.991Z,15.90
2018-09-05T23:12:19.167Z,15.90
2018-09-05T23:17:11.319Z,15.80
2018-09-05T23:20:48.811Z,15.80
2018-09-05T23:23:28.470Z,15.80
2018-09-05T23:25:56.613Z,15.70
2018-09-05T23:28:25.275Z,15.70
2018-09-05T23:30:53.826Z,15.60
2018-09-05T23:33:22.507Z,15.60
2018-09-05T23:35:50.863Z,15.50
2018-09-05T23:39:48.807Z,15.50
2018-09-05T23:42:17.319Z,15.50
2018-09-05T23:44:46.970Z,15.40
2018-09-05T23:47:15.682Z,15.40
2018-09-05T23:49:44.462Z,15.40
2018-09-05T23:52:13.538Z,15.40
2018-09-05T23:54:42.759Z,15.40
2018-09-05T23:57:14.004Z,15.30
2018-09-05T23:59:42.750Z,15.30
